sensor_id;sensor_type;location;lat;lon;timestamp;temperature;humidity
27801;DHT22;15181;49.112;11.930;2022-07-24T00:02:18;18.20;99.90
27801;DHT22;15181;49.112;11.930;2022-07-24T00:04:47;18.20;99.90
27801;DHT22;15181;49.112;11.930;2022-07-24T00:07:22;18.20;99.90
27801;DHT22;15181;49.112;11.930;2022-07-24T00:09:49;18.30;99.90
27801;DHT22;15181;49.112;11.930;2022-07-24T00:12:19;18.50;99.90
27801;DHT22;15181;49.112;11.930;2022-07-24T00:14:47;18.50;99.90
27801;DHT22;15181;49.112;11.930;2022-07-24T00:17:14;18.30;99.90
27801;DHT22;15181;49.112;11.930;2022-07-24T00:19:41;18.20;99.90
27801;DHT22;15181;49.112;11.930;2022-07-24T00:22:10;18.20;99.90
27801;DHT22;15181;49.112;11.930;2022-07-24T00:24:38;18.20;99.90
27801;DHT22;15181;49.112;11.930;2022-07-24T00:27:05;18.20;99.90
27801;DHT22;15181;49.112;11.930;2022-07-24T00:29:32;18.20;99.90
27801;DHT22;15181;49.112;11.930;2022-07-24T00:32:00;18.30;99.90
27801;DHT22;15181;49.112;11.930;2022-07-24T00:34:27;18.30;99.90
27801;DHT22;15181;49.112;11.930;2022-07-24T00:36:55;18.40;99.90
27801;DHT22;15181;49.112;11.930;2022-07-24T00:39:25;18.50;99.90
27801;DHT22;15181;49.112;11.930;2022-07-24T00:41:53;18.40;99.90
27801;DHT22;15181;49.112;11.930;2022-07-24T00:44:21;18.30;99.90
27801;DHT22;15181;49.112;11.930;2022-07-24T00:46:49;18.30;99.90
27801;DHT22;15181;49.112;11.930;2022-07-24T00:49:18;18.30;99.90
27801;DHT22;15181;49.112;11.930;2022-07-24T00:51:50;18.30;99.90
27801;DHT22;15181;49.112;11.930;2022-07-24T00:54:19;18.20;99.90
27801;DHT22;15181;49.112;11.930;2022-07-24T00:56:50;18.20;99.90
27801;DHT22;15181;49.112;11.930;2022-07-24T00:59:20;18.30;99.90
27801;DHT22;15181;49.112;11.930;2022-07-24T01:01:49;18.40;99.90
27801;DHT22;15181;49.112;11.930;2022-07-24T01:04:17;18.30;99.90
27801;DHT22;15181;49.112;11.930;2022-07-24T01:06:46;18.30;99.90
27801;DHT22;15181;49.112;11.930;2022-07-24T01:09:14;18.40;99.90
27801;DHT22;15181;49.112;11.930;2022-07-24T01:11:41;18.30;99.90
27801;DHT22;15181;49.112;11.930;2022-07-24T01:14:10;18.20;99.90
27801;DHT22;15181;49.112;11.930;2022-07-24T01:16:37;18.10;99.90
27801;DHT22;15181;49.112;11.930;2022-07-24T01:19:05;18.00;99.90
27801;DHT22;15181;49.112;11.930;2022-07-24T01:21:34;18.00;99.90
27801;DHT22;15181;49.112;11.930;2022-07-24T01:24:02;18.00;99.90
27801;DHT22;15181;49.112;11.930;2022-07-24T01:26:29;17.90;99.90
27801;DHT22;15181;49.112;11.930;2022-07-24T01:28:57;17.80;99.90
27801;DHT22;15181;49.112;11.930;2022-07-24T01:31:25;17.60;99.90
27801;DHT22;15181;49.112;11.930;2022-07-24T01:33:53;17.60;99.90
27801;DHT22;15181;49.112;11.930;2022-07-24T01:36:20;17.80;99.90
27801;DHT22;15181;49.112;11.930;2022-07-24T01:38:49;17.80;99.90
27801;DHT22;15181;49.112;11.930;2022-07-24T01:41:19;17.70;99.90
27801;DHT22;15181;49.112;11.930;2022-07-24T01:43:47;17.60;99.90
27801;DHT22;15181;49.112;11.930;2022-07-24T01:46:15;17.50;99.90
27801;DHT22;15181;49.112;11.930;2022-07-24T01:48:43;17.40;99.90
27801;DHT22;15181;49.112;11.930;2022-07-24T01:51:14;17.40;99.90
27801;DHT22;15181;49.112;11.930;2022-07-24T01:53:42;17.50;99.90
27801;DHT22;15181;49.112;11.930;2022-07-24T01:56:10;17.50;99.90
27801;DHT22;15181;49.112;11.930;2022-07-24T01:58:37;17.50;99.90
27801;DHT22;15181;49.112;11.930;2022-07-24T02:01:06;17.50;99.90
27801;DHT22;15181;49.112;11.930;2022-07-24T02:03:33;17.50;99.90
27801;DHT22;15181;49.112;11.930;2022-07-24T02:06:00;17.70;99.90
27801;DHT22;15181;49.112;11.930;2022-07-24T02:08:28;17.80;99.90
27801;DHT22;15181;49.112;11.930;2022-07-24T02:10:55;18.00;99.90
27801;DHT22;15181;49.112;11.930;2022-07-24T02:13:24;18.10;99.90
27801;DHT22;15181;49.112;11.930;2022-07-24T02:15:52;18.20;99.90
27801;DHT22;15181;49.112;11.930;2022-07-24T02:18:20;18.30;99.90
27801;DHT22;15181;49.112;11.930;2022-07-24T02:20:47;18.40;99.90
27801;DHT22;15181;49.112;11.930;2022-07-24T02:23:15;18.30;99.90
27801;DHT22;15181;49.112;11.930;2022-07-24T02:25:44;18.20;99.90
27801;DHT22;15181;49.112;11.930;2022-07-24T02:28:15;18.10;99.90
27801;DHT22;15181;49.112;11.930;2022-07-24T02:30:44;18.00;99.90
27801;DHT22;15181;49.112;11.930;2022-07-24T02:33:12;18.00;99.90
27801;DHT22;15181;49.112;11.930;2022-07-24T02:35:39;18.00;99.90
27801;DHT22;15181;49.112;11.930;2022-07-24T02:38:07;18.10;99.90
27801;DHT22;15181;49.112;11.930;2022-07-24T02:40:34;18.20;99.90
27801;DHT22;15181;49.112;11.930;2022-07-24T02:43:04;18.20;99.90
27801;DHT22;15181;49.112;11.930;2022-07-24T02:45:33;18.10;99.90
27801;DHT22;15181;49.112;11.930;2022-07-24T02:48:02;17.90;99.90
27801;DHT22;15181;49.112;11.930;2022-07-24T02:50:32;17.90;99.90
27801;DHT22;15181;49.112;11.930;2022-07-24T02:53:01;18.00;99.90
27801;DHT22;15181;49.112;11.930;2022-07-24T02:55:32;18.10;99.90
27801;DHT22;15181;49.112;11.930;2022-07-24T02:58:01;18.20;99.90
27801;DHT22;15181;49.112;11.930;2022-07-24T03:00:29;18.20;99.90
27801;DHT22;15181;49.112;11.930;2022-07-24T03:02:57;18.20;99.90
27801;DHT22;15181;49.112;11.930;2022-07-24T03:05:29;18.20;99.90
27801;DHT22;15181;49.112;11.930;2022-07-24T03:07:56;18.00;99.90
27801;DHT22;15181;49.112;11.930;2022-07-24T03:10:26;18.00;99.90
27801;DHT22;15181;49.112;11.930;2022-07-24T03:12:56;17.90;99.90
27801;DHT22;15181;49.112;11.930;2022-07-24T03:15:24;17.80;99.90
27801;DHT22;15181;49.112;11.930;2022-07-24T03:17:52;17.70;99.90
27801;DHT22;15181;49.112;11.930;2022-07-24T03:20:21;17.60;99.90
27801;DHT22;15181;49.112;11.930;2022-07-24T03:22:54;17.60;99.90
27801;DHT22;15181;49.112;11.930;2022-07-24T03:25:26;17.50;99.90
27801;DHT22;15181;49.112;11.930;2022-07-24T03:27:57;17.30;99.90
27801;DHT22;15181;49.112;11.930;2022-07-24T03:30:25;17.30;99.90
27801;DHT22;15181;49.112;11.930;2022-07-24T03:32:55;17.30;99.90
27801;DHT22;15181;49.112;11.930;2022-07-24T03:35:22;17.30;99.90
27801;DHT22;15181;49.112;11.930;2022-07-24T03:37:52;17.40;99.90
27801;DHT22;15181;49.112;11.930;2022-07-24T03:40:20;17.40;99.90
27801;DHT22;15181;49.112;11.930;2022-07-24T03:42:47;17.20;99.90
27801;DHT22;15181;49.112;11.930;2022-07-24T03:45:17;17.00;99.90
27801;DHT22;15181;49.112;11.930;2022-07-24T03:47:45;16.90;99.90
27801;DHT22;15181;49.112;11.930;2022-07-24T03:50:13;16.90;99.90
27801;DHT22;15181;49.112;11.930;2022-07-24T03:52:42;16.90;99.90
27801;DHT22;15181;49.112;11.930;2022-07-24T03:55:12;16.90;99.90
27801;DHT22;15181;49.112;11.930;2022-07-24T03:57:40;17.00;99.90
27801;DHT22;15181;49.112;11.930;2022-07-24T04:00:08;17.00;99.90
27801;DHT22;15181;49.112;11.930;2022-07-24T04:02:39;17.00;99.90
27801;DHT22;15181;49.112;11.930;2022-07-24T04:05:10;17.10;99.90
27801;DHT22;15181;49.112;11.930;2022-07-24T04:07:40;17.20;99.90
27801;DHT22;15181;49.112;11.930;2022-07-24T04:10:18;17.30;99.90
27801;DHT22;15181;49.112;11.930;2022-07-24T04:12:46;17.50;99.90
27801;DHT22;15181;49.112;11.930;2022-07-24T04:15:17;17.40;99.90
27801;DHT22;15181;49.112;11.930;2022-07-24T04:17:46;17.40;99.90
27801;DHT22;15181;49.112;11.930;2022-07-24T04:20:20;17.40;99.90
27801;DHT22;15181;49.112;11.930;2022-07-24T04:22:49;17.40;99.90
27801;DHT22;15181;49.112;11.930;2022-07-24T04:25:22;17.30;99.90
27801;DHT22;15181;49.112;11.930;2022-07-24T04:27:50;17.30;99.90
27801;DHT22;15181;49.112;11.930;2022-07-24T04:30:25;17.40;99.90
27801;DHT22;15181;49.112;11.930;2022-07-24T04:32:53;17.50;99.90
27801;DHT22;15181;49.112;11.930;2022-07-24T04:35:24;17.70;99.90
27801;DHT22;15181;49.112;11.930;2022-07-24T04:37:55;17.80;99.90
27801;DHT22;15181;49.112;11.930;2022-07-24T04:40:34;17.90;99.90
27801;DHT22;15181;49.112;11.930;2022-07-24T04:43:04;18.10;99.90
27801;DHT22;15181;49.112;11.930;2022-07-24T04:45:42;18.20;99.90
27801;DHT22;15181;49.112;11.930;2022-07-24T04:48:11;18.20;99.90
27801;DHT22;15181;49.112;11.930;2022-07-24T04:50:45;18.40;99.90
27801;DHT22;15181;49.112;11.930;2022-07-24T04:53:16;18.40;99.90
27801;DHT22;15181;49.112;11.930;2022-07-24T04:55:53;18.50;99.90
27801;DHT22;15181;49.112;11.930;2022-07-24T04:58:21;18.60;99.90
27801;DHT22;15181;49.112;11.930;2022-07-24T05:00:55;18.60;99.90
27801;DHT22;15181;49.112;11.930;2022-07-24T05:03:24;18.50;99.90
27801;DHT22;15181;49.112;11.930;2022-07-24T05:05:52;18.40;99.90
27801;DHT22;15181;49.112;11.930;2022-07-24T05:08:19;18.40;99.90
27801;DHT22;15181;49.112;11.930;2022-07-24T05:10:51;18.50;99.90
27801;DHT22;15181;49.112;11.930;2022-07-24T05:13:19;18.60;99.90
27801;DHT22;15181;49.112;11.930;2022-07-24T05:15:50;18.80;99.90
27801;DHT22;15181;49.112;11.930;2022-07-24T05:18:17;18.90;99.90
27801;DHT22;15181;49.112;11.930;2022-07-24T05:20:46;19.10;99.90
27801;DHT22;15181;49.112;11.930;2022-07-24T05:23:13;19.20;99.90
27801;DHT22;15181;49.112;11.930;2022-07-24T05:25:41;19.40;99.90
27801;DHT22;15181;49.112;11.930;2022-07-24T05:28:09;19.50;99.90
27801;DHT22;15181;49.112;11.930;2022-07-24T05:30:37;19.60;99.90
27801;DHT22;15181;49.112;11.930;2022-07-24T05:33:06;19.70;99.90
27801;DHT22;15181;49.112;11.930;2022-07-24T05:35:34;19.80;99.90
27801;DHT22;15181;49.112;11.930;2022-07-24T05:38:10;20.00;99.90
27801;DHT22;15181;49.112;11.930;2022-07-24T05:40:38;20.00;99.90
27801;DHT22;15181;49.112;11.930;2022-07-24T05:43:08;20.10;99.90
27801;DHT22;15181;49.112;11.930;2022-07-24T05:45:37;20.20;99.90
27801;DHT22;15181;49.112;11.930;2022-07-24T05:48:08;20.30;99.90
27801;DHT22;15181;49.112;11.930;2022-07-24T05:50:38;20.40;99.90
27801;DHT22;15181;49.112;11.930;2022-07-24T05:53:06;20.60;99.90
27801;DHT22;15181;49.112;11.930;2022-07-24T05:55:34;20.70;99.90
27801;DHT22;15181;49.112;11.930;2022-07-24T05:58:02;20.80;99.90
27801;DHT22;15181;49.112;11.930;2022-07-24T06:00:30;20.80;99.90
27801;DHT22;15181;49.112;11.930;2022-07-24T06:02:59;20.90;99.90
27801;DHT22;15181;49.112;11.930;2022-07-24T06:05:27;20.80;99.90
27801;DHT22;15181;49.112;11.930;2022-07-24T06:07:54;21.00;99.90
27801;DHT22;15181;49.112;11.930;2022-07-24T06:10:22;21.10;99.90
27801;DHT22;15181;49.112;11.930;2022-07-24T06:12:49;21.30;99.90
27801;DHT22;15181;49.112;11.930;2022-07-24T06:15:17;21.50;99.90
27801;DHT22;15181;49.112;11.930;2022-07-24T06:17:44;21.70;99.90
27801;DHT22;15181;49.112;11.930;2022-07-24T06:20:17;21.80;99.90
27801;DHT22;15181;49.112;11.930;2022-07-24T06:22:44;22.00;99.90
27801;DHT22;15181;49.112;11.930;2022-07-24T06:25:12;22.00;99.90
27801;DHT22;15181;49.112;11.930;2022-07-24T06:27:41;22.10;99.90
27801;DHT22;15181;49.112;11.930;2022-07-24T06:30:22;22.30;99.90
27801;DHT22;15181;49.112;11.930;2022-07-24T06:32:55;22.50;99.90
27801;DHT22;15181;49.112;11.930;2022-07-24T06:35:25;22.70;99.90
27801;DHT22;15181;49.112;11.930;2022-07-24T06:37:53;22.80;99.90
27801;DHT22;15181;49.112;11.930;2022-07-24T06:40:22;22.90;99.90
27801;DHT22;15181;49.112;11.930;2022-07-24T06:42:49;23.00;99.90
27801;DHT22;15181;49.112;11.930;2022-07-24T06:45:17;23.20;99.90
27801;DHT22;15181;49.112;11.930;2022-07-24T06:47:47;23.20;99.90
27801;DHT22;15181;49.112;11.930;2022-07-24T06:50:15;23.30;99.90
27801;DHT22;15181;49.112;11.930;2022-07-24T06:52:44;23.10;99.90
27801;DHT22;15181;49.112;11.930;2022-07-24T06:55:12;23.30;99.90
27801;DHT22;15181;49.112;11.930;2022-07-24T06:57:43;23.30;99.90
27801;DHT22;15181;49.112;11.930;2022-07-24T07:00:12;23.40;99.90
27801;DHT22;15181;49.112;11.930;2022-07-24T07:02:39;23.60;99.90
27801;DHT22;15181;49.112;11.930;2022-07-24T07:05:10;23.80;99.90
27801;DHT22;15181;49.112;11.930;2022-07-24T07:07:38;24.00;99.90
27801;DHT22;15181;49.112;11.930;2022-07-24T07:10:09;24.10;99.90
27801;DHT22;15181;49.112;11.930;2022-07-24T07:12:39;24.20;99.90
27801;DHT22;15181;49.112;11.930;2022-07-24T07:15:11;24.40;99.90
27801;DHT22;15181;49.112;11.930;2022-07-24T07:17:40;24.50;99.90
27801;DHT22;15181;49.112;11.930;2022-07-24T07:20:17;24.50;99.90
27801;DHT22;15181;49.112;11.930;2022-07-24T07:22:45;24.60;99.90
27801;DHT22;15181;49.112;11.930;2022-07-24T07:25:23;24.80;99.90
27801;DHT22;15181;49.112;11.930;2022-07-24T07:27:51;25.00;99.90
27801;DHT22;15181;49.112;11.930;2022-07-24T07:30:23;25.10;99.90
27801;DHT22;15181;49.112;11.930;2022-07-24T07:32:54;25.00;99.90
27801;DHT22;15181;49.112;11.930;2022-07-24T07:35:23;25.20;99.90
27801;DHT22;15181;49.112;11.930;2022-07-24T07:37:52;25.00;99.90
27801;DHT22;15181;49.112;11.930;2022-07-24T07:40:24;25.00;99.90
27801;DHT22;15181;49.112;11.930;2022-07-24T07:42:56;25.20;99.90
27801;DHT22;15181;49.112;11.930;2022-07-24T07:45:26;25.40;99.90
27801;DHT22;15181;49.112;11.930;2022-07-24T07:47:54;25.60;99.90
27801;DHT22;15181;49.112;11.930;2022-07-24T07:50:28;25.80;99.90
27801;DHT22;15181;49.112;11.930;2022-07-24T07:53:00;25.90;99.90
27801;DHT22;15181;49.112;11.930;2022-07-24T07:55:39;26.10;99.90
27801;DHT22;15181;49.112;11.930;2022-07-24T07:58:20;26.20;99.90
27801;DHT22;15181;49.112;11.930;2022-07-24T08:01:05;26.30;99.90
27801;DHT22;15181;49.112;11.930;2022-07-24T08:03:34;26.40;99.90
27801;DHT22;15181;49.112;11.930;2022-07-24T08:06:09;26.50;99.90
27801;DHT22;15181;49.112;11.930;2022-07-24T08:08:40;26.40;99.90
27801;DHT22;15181;49.112;11.930;2022-07-24T08:11:11;26.50;99.90
27801;DHT22;15181;49.112;11.930;2022-07-24T08:13:47;26.70;99.90
27801;DHT22;15181;49.112;11.930;2022-07-24T08:16:17;26.90;99.90
27801;DHT22;15181;49.112;11.930;2022-07-24T08:18:48;27.00;99.90
27801;DHT22;15181;49.112;11.930;2022-07-24T08:21:22;27.10;99.90
27801;DHT22;15181;49.112;11.930;2022-07-24T08:23:54;27.20;99.90
27801;DHT22;15181;49.112;11.930;2022-07-24T08:26:28;27.30;99.90
27801;DHT22;15181;49.112;11.930;2022-07-24T08:29:04;27.40;99.90
27801;DHT22;15181;49.112;11.930;2022-07-24T08:31:38;27.50;99.90
27801;DHT22;15181;49.112;11.930;2022-07-24T08:34:10;27.50;99.90
27801;DHT22;15181;49.112;11.930;2022-07-24T08:36:45;27.60;99.90
27801;DHT22;15181;49.112;11.930;2022-07-24T08:39:17;27.60;99.90
27801;DHT22;15181;49.112;11.930;2022-07-24T08:41:49;27.80;99.90
27801;DHT22;15181;49.112;11.930;2022-07-24T08:44:19;27.90;99.90
27801;DHT22;15181;49.112;11.930;2022-07-24T08:46:53;28.00;99.90
27801;DHT22;15181;49.112;11.930;2022-07-24T08:49:36;28.00;99.90
27801;DHT22;15181;49.112;11.930;2022-07-24T08:52:08;28.00;99.90
27801;DHT22;15181;49.112;11.930;2022-07-24T08:54:44;27.90;99.90
27801;DHT22;15181;49.112;11.930;2022-07-24T08:57:14;28.00;99.90
27801;DHT22;15181;49.112;11.930;2022-07-24T08:59:43;28.10;99.90
27801;DHT22;15181;49.112;11.930;2022-07-24T09:02:11;28.30;99.90
27801;DHT22;15181;49.112;11.930;2022-07-24T09:04:48;28.30;99.90
27801;DHT22;15181;49.112;11.930;2022-07-24T09:07:21;28.20;99.90
27801;DHT22;15181;49.112;11.930;2022-07-24T09:10:03;28.30;99.90
27801;DHT22;15181;49.112;11.930;2022-07-24T09:12:41;28.30;99.90
27801;DHT22;15181;49.112;11.930;2022-07-24T09:15:25;28.30;99.90
27801;DHT22;15181;49.112;11.930;2022-07-24T09:17:57;28.40;99.90
27801;DHT22;15181;49.112;11.930;2022-07-24T09:20:55;28.70;99.90
27801;DHT22;15181;49.112;11.930;2022-07-24T09:23:25;28.90;99.90
27801;DHT22;15181;49.112;11.930;2022-07-24T09:25:54;29.00;99.90
27801;DHT22;15181;49.112;11.930;2022-07-24T09:28:30;29.00;99.90
27801;DHT22;15181;49.112;11.930;2022-07-24T09:31:22;29.10;99.90
27801;DHT22;15181;49.112;11.930;2022-07-24T09:33:59;29.10;99.90
27801;DHT22;15181;49.112;11.930;2022-07-24T09:36:39;29.20;99.90
27801;DHT22;15181;49.112;11.930;2022-07-24T09:39:11;29.30;99.90
27801;DHT22;15181;49.112;11.930;2022-07-24T09:41:56;29.30;99.90
27801;DHT22;15181;49.112;11.930;2022-07-24T09:44:28;29.30;99.90
27801;DHT22;15181;49.112;11.930;2022-07-24T09:47:04;29.00;99.90
27801;DHT22;15181;49.112;11.930;2022-07-24T09:49:36;28.80;99.90
27801;DHT22;15181;49.112;11.930;2022-07-24T09:52:08;28.60;99.90
27801;DHT22;15181;49.112;11.930;2022-07-24T09:54:41;28.30;99.90
27801;DHT22;15181;49.112;11.930;2022-07-24T09:57:23;28.20;99.90
27801;DHT22;15181;49.112;11.930;2022-07-24T10:00:08;28.20;99.90
27801;DHT22;15181;49.112;11.930;2022-07-24T10:02:44;28.30;99.90
27801;DHT22;15181;49.112;11.930;2022-07-24T10:05:13;28.10;99.90
27801;DHT22;15181;49.112;11.930;2022-07-24T10:07:51;28.00;99.90
27801;DHT22;15181;49.112;11.930;2022-07-24T10:10:30;28.10;99.90
27801;DHT22;15181;49.112;11.930;2022-07-24T10:13:02;28.10;99.90
27801;DHT22;15181;49.112;11.930;2022-07-24T10:15:53;28.20;99.90
27801;DHT22;15181;49.112;11.930;2022-07-24T10:18:50;28.20;99.90
27801;DHT22;15181;49.112;11.930;2022-07-24T10:21:23;28.30;99.90
27801;DHT22;15181;49.112;11.930;2022-07-24T10:27:20;28.60;99.90
27801;DHT22;15181;49.112;11.930;2022-07-24T10:29:56;28.80;99.90
27801;DHT22;15181;49.112;11.930;2022-07-24T10:32:41;28.80;99.90
27801;DHT22;15181;49.112;11.930;2022-07-24T10:35:15;28.90;99.90
27801;DHT22;15181;49.112;11.930;2022-07-24T10:38:01;29.00;99.90
27801;DHT22;15181;49.112;11.930;2022-07-24T10:40:53;29.00;99.90
27801;DHT22;15181;49.112;11.930;2022-07-24T10:43:27;29.10;99.90
27801;DHT22;15181;49.112;11.930;2022-07-24T10:46:14;29.00;99.90
27801;DHT22;15181;49.112;11.930;2022-07-24T10:48:55;29.30;99.90
27801;DHT22;15181;49.112;11.930;2022-07-24T10:51:29;29.40;99.90
27801;DHT22;15181;49.112;11.930;2022-07-24T10:54:21;29.20;99.90
27801;DHT22;15181;49.112;11.930;2022-07-24T10:56:54;29.50;99.90
27801;DHT22;15181;49.112;11.930;2022-07-24T10:59:43;29.80;99.90
27801;DHT22;15181;49.112;11.930;2022-07-24T11:02:28;30.00;99.90
27801;DHT22;15181;49.112;11.930;2022-07-24T11:05:25;30.10;99.90
27801;DHT22;15181;49.112;11.930;2022-07-24T11:11:19;30.50;99.90
27801;DHT22;15181;49.112;11.930;2022-07-24T11:13:54;30.70;99.90
27801;DHT22;15181;49.112;11.930;2022-07-24T11:16:30;30.80;99.90
27801;DHT22;15181;49.112;11.930;2022-07-24T11:19:29;30.90;99.90
27801;DHT22;15181;49.112;11.930;2022-07-24T11:22:13;31.10;99.90
27801;DHT22;15181;49.112;11.930;2022-07-24T11:25:12;31.10;99.90
27801;DHT22;15181;49.112;11.930;2022-07-24T11:27:47;31.20;99.90
27801;DHT22;15181;49.112;11.930;2022-07-24T11:30:20;31.00;99.90
27801;DHT22;15181;49.112;11.930;2022-07-24T11:33:20;30.90;99.90
27801;DHT22;15181;49.112;11.930;2022-07-24T11:35:56;30.70;99.90
27801;DHT22;15181;49.112;11.930;2022-07-24T11:38:38;30.60;99.90
27801;DHT22;15181;49.112;11.930;2022-07-24T11:41:11;30.50;99.90
27801;DHT22;15181;49.112;11.930;2022-07-24T11:43:50;30.50;99.90
27801;DHT22;15181;49.112;11.930;2022-07-24T11:46:33;30.40;99.90
27801;DHT22;15181;49.112;11.930;2022-07-24T11:49:04;30.40;99.90
27801;DHT22;15181;49.112;11.930;2022-07-24T11:51:41;30.60;99.90
27801;DHT22;15181;49.112;11.930;2022-07-24T11:54:13;30.70;99.90
27801;DHT22;15181;49.112;11.930;2022-07-24T11:56:43;30.60;99.90
27801;DHT22;15181;49.112;11.930;2022-07-24T11:59:33;30.70;99.90
27801;DHT22;15181;49.112;11.930;2022-07-24T12:02:09;30.50;99.90
27801;DHT22;15181;49.112;11.930;2022-07-24T12:04:42;30.60;99.90
27801;DHT22;15181;49.112;11.930;2022-07-24T12:07:15;30.60;99.90
27801;DHT22;15181;49.112;11.930;2022-07-24T12:09:50;30.60;99.90
27801;DHT22;15181;49.112;11.930;2022-07-24T12:12:28;30.70;99.90
27801;DHT22;15181;49.112;11.930;2022-07-24T12:15:05;30.70;99.90
27801;DHT22;15181;49.112;11.930;2022-07-24T12:23:14;30.90;99.90
27801;DHT22;15181;49.112;11.930;2022-07-24T12:25:57;31.00;99.90
27801;DHT22;15181;49.112;11.930;2022-07-24T12:28:34;31.00;99.90
27801;DHT22;15181;49.112;11.930;2022-07-24T12:31:10;30.90;99.90
27801;DHT22;15181;49.112;11.930;2022-07-24T12:33:54;30.80;99.90
27801;DHT22;15181;49.112;11.930;2022-07-24T12:36:32;30.80;99.90
27801;DHT22;15181;49.112;11.930;2022-07-24T12:39:07;30.70;99.90
27801;DHT22;15181;49.112;11.930;2022-07-24T12:41:49;30.70;99.90
27801;DHT22;15181;49.112;11.930;2022-07-24T12:44:39;30.60;99.90
27801;DHT22;15181;49.112;11.930;2022-07-24T12:47:12;30.60;99.90
27801;DHT22;15181;49.112;11.930;2022-07-24T12:49:42;30.60;99.90
27801;DHT22;15181;49.112;11.930;2022-07-24T12:52:20;30.60;99.90
27801;DHT22;15181;49.112;11.930;2022-07-24T12:54:57;30.70;99.90
27801;DHT22;15181;49.112;11.930;2022-07-24T12:57:28;30.70;99.90
27801;DHT22;15181;49.112;11.930;2022-07-24T13:00:04;30.60;99.90
27801;DHT22;15181;49.112;11.930;2022-07-24T13:02:37;30.70;99.90
27801;DHT22;15181;49.112;11.930;2022-07-24T13:05:07;30.40;99.90
27801;DHT22;15181;49.112;11.930;2022-07-24T13:07:34;30.30;99.90
27801;DHT22;15181;49.112;11.930;2022-07-24T13:10:03;30.30;99.90
27801;DHT22;15181;49.112;11.930;2022-07-24T13:12:42;30.30;99.90
27801;DHT22;15181;49.112;11.930;2022-07-24T13:15:10;30.30;99.90
27801;DHT22;15181;49.112;11.930;2022-07-24T13:17:41;30.30;99.90
27801;DHT22;15181;49.112;11.930;2022-07-24T13:20:09;30.20;99.90
27801;DHT22;15181;49.112;11.930;2022-07-24T13:22:42;29.90;99.90
27801;DHT22;15181;49.112;11.930;2022-07-24T13:25:12;29.70;99.90
27801;DHT22;15181;49.112;11.930;2022-07-24T13:27:51;29.90;99.90
27801;DHT22;15181;49.112;11.930;2022-07-24T13:30:29;30.00;99.90
27801;DHT22;15181;49.112;11.930;2022-07-24T13:33:03;30.10;99.90
27801;DHT22;15181;49.112;11.930;2022-07-24T13:35:45;30.30;99.90
27801;DHT22;15181;49.112;11.930;2022-07-24T13:38:26;30.40;99.90
27801;DHT22;15181;49.112;11.930;2022-07-24T13:41:09;30.60;99.90
27801;DHT22;15181;49.112;11.930;2022-07-24T13:43:46;30.70;99.90
27801;DHT22;15181;49.112;11.930;2022-07-24T13:46:18;30.60;99.90
27801;DHT22;15181;49.112;11.930;2022-07-24T13:48:53;30.60;99.90
27801;DHT22;15181;49.112;11.930;2022-07-24T13:51:26;30.70;99.90
27801;DHT22;15181;49.112;11.930;2022-07-24T13:54:10;30.70;99.90
27801;DHT22;15181;49.112;11.930;2022-07-24T13:56:47;30.50;99.90
27801;DHT22;15181;49.112;11.930;2022-07-24T13:59:29;30.70;99.90
27801;DHT22;15181;49.112;11.930;2022-07-24T14:02:04;30.90;99.90
27801;DHT22;15181;49.112;11.930;2022-07-24T14:04:40;31.10;99.90
27801;DHT22;15181;49.112;11.930;2022-07-24T14:07:15;31.30;99.90
27801;DHT22;15181;49.112;11.930;2022-07-24T14:09:48;31.40;99.90
27801;DHT22;15181;49.112;11.930;2022-07-24T14:12:31;31.50;99.90
27801;DHT22;15181;49.112;11.930;2022-07-24T14:15:19;31.60;99.90
27801;DHT22;15181;49.112;11.930;2022-07-24T14:17:48;31.60;99.90
27801;DHT22;15181;49.112;11.930;2022-07-24T14:20:18;31.60;99.90
27801;DHT22;15181;49.112;11.930;2022-07-24T14:22:53;31.50;99.90
27801;DHT22;15181;49.112;11.930;2022-07-24T14:25:26;31.40;99.90
27801;DHT22;15181;49.112;11.930;2022-07-24T14:28:12;31.40;99.90
27801;DHT22;15181;49.112;11.930;2022-07-24T14:30:50;31.60;99.90
27801;DHT22;15181;49.112;11.930;2022-07-24T14:33:25;31.70;99.90
27801;DHT22;15181;49.112;11.930;2022-07-24T14:36:06;31.90;99.90
27801;DHT22;15181;49.112;11.930;2022-07-24T14:38:44;31.80;99.90
27801;DHT22;15181;49.112;11.930;2022-07-24T14:41:13;31.70;99.90
27801;DHT22;15181;49.112;11.930;2022-07-24T14:43:55;31.60;99.90
27801;DHT22;15181;49.112;11.930;2022-07-24T14:46:30;31.50;99.90
27801;DHT22;15181;49.112;11.930;2022-07-24T14:49:01;31.40;99.90
27801;DHT22;15181;49.112;11.930;2022-07-24T14:51:28;31.40;99.90
27801;DHT22;15181;49.112;11.930;2022-07-24T14:53:59;31.50;99.90
27801;DHT22;15181;49.112;11.930;2022-07-24T14:56:40;31.60;99.90
27801;DHT22;15181;49.112;11.930;2022-07-24T14:59:19;31.70;99.90
27801;DHT22;15181;49.112;11.930;2022-07-24T15:02:01;31.60;99.90
27801;DHT22;15181;49.112;11.930;2022-07-24T15:04:35;31.60;99.90
27801;DHT22;15181;49.112;11.930;2022-07-24T15:07:15;31.60;99.90
27801;DHT22;15181;49.112;11.930;2022-07-24T15:09:46;31.40;99.90
27801;DHT22;15181;49.112;11.930;2022-07-24T15:12:17;31.20;99.90
27801;DHT22;15181;49.112;11.930;2022-07-24T15:14:45;31.00;99.90
27801;DHT22;15181;49.112;11.930;2022-07-24T15:17:13;30.80;99.90
27801;DHT22;15181;49.112;11.930;2022-07-24T15:19:40;30.60;99.90
27801;DHT22;15181;49.112;11.930;2022-07-24T15:22:06;30.50;99.90
27801;DHT22;15181;49.112;11.930;2022-07-24T15:24:33;30.40;99.90
27801;DHT22;15181;49.112;11.930;2022-07-24T15:27:00;30.20;99.90
27801;DHT22;15181;49.112;11.930;2022-07-24T15:29:27;30.30;99.90
27801;DHT22;15181;49.112;11.930;2022-07-24T15:31:55;30.20;99.90
27801;DHT22;15181;49.112;11.930;2022-07-24T15:34:24;30.30;99.90
27801;DHT22;15181;49.112;11.930;2022-07-24T15:36:50;30.50;99.90
27801;DHT22;15181;49.112;11.930;2022-07-24T15:39:18;30.80;99.90
27801;DHT22;15181;49.112;11.930;2022-07-24T15:41:45;30.90;99.90
27801;DHT22;15181;49.112;11.930;2022-07-24T15:44:11;30.70;99.90
27801;DHT22;15181;49.112;11.930;2022-07-24T15:46:38;30.50;99.90
27801;DHT22;15181;49.112;11.930;2022-07-24T15:49:06;30.50;99.90
27801;DHT22;15181;49.112;11.930;2022-07-24T15:51:36;30.60;99.90
27801;DHT22;15181;49.112;11.930;2022-07-24T15:54:04;30.70;99.90
27801;DHT22;15181;49.112;11.930;2022-07-24T15:56:31;30.80;99.90
27801;DHT22;15181;49.112;11.930;2022-07-24T15:58:58;31.00;99.90
27801;DHT22;15181;49.112;11.930;2022-07-24T16:01:24;30.90;99.90